オークランド の空港の天気 - METARとTAF

オークランド国際空港 ( NZAA / AKL ) - ニュージーランド オークランド|オークランド
飛行場実況気象(Metar)
観測時間04/22 04:30 NZST (04/21 16:30 UTC)
風向・風速北 2m/s
視程10km以上
天気現象
全天の8割程度の雲 雲底高度 2440m
気温16℃
湿度88%
気圧1020hPa
METARNZAA 211630Z AUTO 36003KT 9999 BKN080/// 16/14 Q1020 TEMPO 4000 +RA BKN012 FEW020CB
過去の天気等 Google飛行場航空写真 Wunderground天気予報

過去48時間のMETAR

飛行場予報(TAF)
発表時間: 4/22 01:29 NZST (4/21 13:29 UTC)
予報対象時間: 22日1時 NZST ~ 23日0時 NZST
風向・風速北北東 8m/s 瞬間風速 13m/s
視程10km以上
天気現象弱いしゅう雨
少しの雲 雲底高度 460m
全天の8割程度の雲 雲底高度 760m
22日1時 NZST ~ 22日13時 NZST に一時的に
視程4000m
天気現象強い雨
全天の8割程度の雲 雲底高度 370m
少しの積乱雲 雲底高度 610m
22日2時 NZST ~ 22日4時 NZST に徐々に
風向・風速北 5m/s
22日11時 NZST ~ 22日13時 NZST に徐々に
風向・風速北西 5m/s
22日13時 NZST ~ 22日24時 NZST に一時的に
視程6000m
天気現象しゅう雨
少しの塔状積雲 雲底高度 610m
22日16時 NZST ~ 22日18時 NZST に徐々に
風向・風速北北東 3m/s
TAF AMD NZAA 211329Z 2113/2212 02015G25KT 9999 -SHRA FEW015 BKN025
TEMPO 2113/2201 4000 +RA BKN012 FEW020CB
BECMG 2114/2116 36010KT
BECMG 2123/2201 32010KT
TEMPO 2201/2212 6000 SHRA FEW020TCU
BECMG 2204/2206 02005KT